createdAt,value
2019-02-03T00:00:00.219Z,3.8
2019-02-03T00:05:00.333Z,3.8
2019-02-03T00:10:00.359Z,3.8
2019-02-03T00:15:00.441Z,3.8
2019-02-03T00:20:00.438Z,3.8
2019-02-03T00:25:00.423Z,3.8
2019-02-03T00:30:00.390Z,3.8
2019-02-03T00:35:00.225Z,3.7
2019-02-03T00:40:00.372Z,3.7
2019-02-03T00:45:00.233Z,3.7
2019-02-03T00:50:00.354Z,3.7
2019-02-03T00:55:00.400Z,3.7
2019-02-03T01:00:00.346Z,3.7
2019-02-03T01:05:00.231Z,3.6
2019-02-03T01:10:00.403Z,3.6
2019-02-03T01:15:00.541Z,3.6
2019-02-03T01:20:00.321Z,3.6
2019-02-03T01:25:00.402Z,3.7
2019-02-03T01:30:00.389Z,3.6
2019-02-03T01:35:00.481Z,3.6
2019-02-03T01:40:00.354Z,3.7
2019-02-03T01:45:00.432Z,3.6
2019-02-03T01:50:00.467Z,3.6
2019-02-03T01:55:00.331Z,3.6
2019-02-03T02:00:00.347Z,3.7
2019-02-03T02:05:00.479Z,3.6
2019-02-03T02:10:00.279Z,3.6
2019-02-03T02:15:00.323Z,3.6
2019-02-03T02:20:00.405Z,3.6
2019-02-03T02:25:00.334Z,3.6
2019-02-03T02:30:00.299Z,3.6
2019-02-03T02:35:00.479Z,3.7
2019-02-03T02:40:12.016Z,3.7
2019-02-03T02:45:00.323Z,3.7
2019-02-03T02:50:00.479Z,3.6
2019-02-03T02:55:00.509Z,3.6
2019-02-03T03:00:00.435Z,3.6
2019-02-03T03:05:00.358Z,3.5
2019-02-03T03:10:00.506Z,3.4
2019-02-03T03:15:00.371Z,3.3
2019-02-03T03:20:00.317Z,3.2
2019-02-03T03:25:00.561Z,3.1
2019-02-03T03:30:00.650Z,2.9
2019-02-03T03:35:00.437Z,2.9
2019-02-03T03:40:00.517Z,2.8
2019-02-03T03:45:00.546Z,2.7
2019-02-03T03:50:00.525Z,2.6
2019-02-03T03:55:00.508Z,2.5
2019-02-03T04:00:00.367Z,2.5
2019-02-03T04:05:00.470Z,2.5
2019-02-03T04:10:00.355Z,2.5
2019-02-03T04:15:00.361Z,2.4
2019-02-03T04:20:00.602Z,2.4
2019-02-03T04:25:00.561Z,2.4
2019-02-03T04:30:00.544Z,2.4
2019-02-03T04:35:01.076Z,2.4
2019-02-03T04:40:00.672Z,2.4
2019-02-03T04:45:00.333Z,2.3
2019-02-03T04:50:00.365Z,2.3
2019-02-03T04:55:00.492Z,2.3
2019-02-03T05:00:00.410Z,2.2
2019-02-03T05:05:00.533Z,2.2
2019-02-03T05:10:00.392Z,2.1
2019-02-03T05:15:00.541Z,2.1
2019-02-03T05:20:00.636Z,2
2019-02-03T05:25:00.455Z,2.1
2019-02-03T05:30:00.548Z,2.1
2019-02-03T05:35:00.381Z,2.1
2019-02-03T05:40:00.612Z,2.1
2019-02-03T05:45:00.391Z,2.1
2019-02-03T05:50:03.557Z,2.1
2019-02-03T05:55:00.604Z,2.1
2019-02-03T06:00:00.373Z,2.1
2019-02-03T06:05:00.409Z,2.2
2019-02-03T06:10:00.502Z,2.2
2019-02-03T06:15:00.417Z,2.2
2019-02-03T06:20:00.399Z,2.2
2019-02-03T06:25:00.590Z,2.2
2019-02-03T06:30:00.413Z,2.2
2019-02-03T06:35:00.416Z,2.3
2019-02-03T06:40:03.733Z,2.4
2019-02-03T06:45:00.418Z,2.3
2019-02-03T06:50:00.434Z,2.4
2019-02-03T06:55:00.422Z,2.4
2019-02-03T07:00:00.438Z,2.4
2019-02-03T07:05:00.410Z,2.5
2019-02-03T07:10:01.023Z,2.5
2019-02-03T07:15:00.448Z,2.5
2019-02-03T07:20:00.424Z,2.6
2019-02-03T07:25:00.435Z,2.7
2019-02-03T07:30:00.501Z,2.7
2019-02-03T07:35:00.451Z,2.8
2019-02-03T07:40:11.511Z,2.8
2019-02-03T07:45:00.472Z,2.9
2019-02-03T07:50:00.553Z,2.9
2019-02-03T07:55:00.458Z,3
2019-02-03T08:00:00.456Z,3.1
2019-02-03T08:05:00.476Z,3.1
2019-02-03T08:10:00.492Z,3.1
2019-02-03T08:15:00.482Z,3.3
2019-02-03T08:20:00.692Z,3.3
2019-02-03T08:25:00.467Z,3.2
2019-02-03T08:30:00.475Z,3.3
2019-02-03T08:35:00.500Z,3.3
2019-02-03T08:40:00.441Z,3.3
2019-02-03T08:45:00.431Z,3.4
2019-02-03T08:50:00.473Z,3.4
2019-02-03T08:55:00.538Z,3.4
2019-02-03T09:00:00.479Z,3.4
2019-02-03T09:05:00.589Z,3.5
2019-02-03T09:10:00.748Z,3.5
2019-02-03T09:15:00.692Z,3.5
2019-02-03T09:20:00.570Z,3.6
2019-02-03T09:25:00.531Z,3.7
2019-02-03T09:30:00.519Z,3.8
2019-02-03T09:35:00.578Z,3.8
2019-02-03T09:40:00.513Z,3.9
2019-02-03T09:45:00.518Z,4.1
2019-02-03T09:50:00.563Z,4
2019-02-03T09:55:00.549Z,4.2
2019-02-03T10:00:00.524Z,4.2
2019-02-03T10:05:00.585Z,4.3
2019-02-03T10:10:00.573Z,4.2
2019-02-03T10:15:00.533Z,4.3
2019-02-03T10:20:00.836Z,4.3
2019-02-03T10:25:00.572Z,4.5
2019-02-03T10:30:01.561Z,4.7
2019-02-03T10:35:00.555Z,4.9
2019-02-03T10:40:00.656Z,4.9
2019-02-03T10:45:00.560Z,5.1
2019-02-03T10:50:01.420Z,4.9
2019-02-03T10:55:00.516Z,4.9
2019-02-03T11:00:00.613Z,5
2019-02-03T11:05:00.566Z,4.9
2019-02-03T11:10:00.558Z,4.8
2019-02-03T11:15:00.596Z,5
2019-02-03T11:20:00.632Z,5
2019-02-03T11:25:00.715Z,5
2019-02-03T11:30:00.569Z,5.1
2019-02-03T11:35:00.716Z,5.1
2019-02-03T11:40:00.701Z,4.9
2019-02-03T11:45:00.718Z,5
2019-02-03T11:50:00.714Z,5.1
2019-02-03T11:55:00.731Z,5
2019-02-03T12:00:00.616Z,5
2019-02-03T12:05:01.573Z,5.1
2019-02-03T12:10:00.592Z,5.1
2019-02-03T12:15:00.611Z,5.2
2019-02-03T12:20:00.598Z,5
2019-02-03T12:25:00.626Z,5
2019-02-03T12:30:00.631Z,5
2019-02-03T12:35:00.650Z,5.1
2019-02-03T12:40:00.759Z,4.8
2019-02-03T12:45:01.623Z,4.9
2019-02-03T12:50:00.688Z,4.9
2019-02-03T12:55:00.629Z,4.9
2019-02-03T13:00:00.698Z,4.9
2019-02-03T13:05:00.655Z,4.8
2019-02-03T13:10:00.651Z,4.8
2019-02-03T13:15:00.621Z,4.8
2019-02-03T13:20:00.626Z,4.7
2019-02-03T13:25:03.777Z,4.9
2019-02-03T13:30:00.722Z,4.9
2019-02-03T13:35:00.710Z,4.8
2019-02-03T13:40:00.655Z,4.7
2019-02-03T13:45:00.711Z,4.6
2019-02-03T13:50:00.661Z,4.3
2019-02-03T13:55:00.766Z,4.5
2019-02-03T14:00:01.113Z,4.4
2019-02-03T14:05:00.788Z,4.4
2019-02-03T14:10:00.793Z,4.5
2019-02-03T14:15:00.690Z,4.4
2019-02-03T14:20:00.684Z,4.4
2019-02-03T14:25:00.842Z,4.3
2019-02-03T14:30:00.680Z,4.2
2019-02-03T14:35:00.860Z,4.2
2019-02-03T14:40:00.807Z,4.2
2019-02-03T14:45:00.665Z,4.2
2019-02-03T14:50:00.841Z,4.1
2019-02-03T14:55:00.678Z,4.2
2019-02-03T15:00:00.725Z,4.1
2019-02-03T15:05:01.113Z,4
2019-02-03T15:10:00.726Z,3.9
2019-02-03T15:15:00.669Z,3.9
2019-02-03T15:20:00.719Z,3.7
2019-02-03T15:25:00.684Z,3.7
2019-02-03T15:30:01.322Z,3.5
2019-02-03T15:35:00.846Z,3.5
2019-02-03T15:40:00.958Z,3.5
2019-02-03T15:45:00.753Z,3.3
2019-02-03T15:50:00.850Z,3.3
2019-02-03T15:55:00.927Z,3.2
2019-02-03T16:00:00.683Z,3.2
2019-02-03T16:05:00.840Z,3.1
2019-02-03T16:10:00.755Z,3.1
2019-02-03T16:15:01.009Z,3.1
2019-02-03T16:20:00.918Z,3
2019-02-03T16:25:00.753Z,3
2019-02-03T16:30:00.784Z,2.9
2019-02-03T16:35:01.048Z,2.8
2019-02-03T16:40:00.750Z,2.8
2019-02-03T16:45:00.724Z,2.7
2019-02-03T16:50:00.825Z,2.6
2019-02-03T16:55:00.716Z,2.5
2019-02-03T17:00:00.784Z,2.5
2019-02-03T17:05:00.751Z,2.4
2019-02-03T17:10:04.752Z,2.4
2019-02-03T17:15:00.752Z,2.3
2019-02-03T17:20:00.756Z,2.3
2019-02-03T17:25:00.781Z,2.2
2019-02-03T17:30:00.775Z,2.2
2019-02-03T17:35:00.772Z,2.2
2019-02-03T17:40:00.796Z,2.1
2019-02-03T17:45:00.776Z,2.1
2019-02-03T17:50:01.837Z,2
2019-02-03T17:55:03.373Z,2
2019-02-03T18:00:00.780Z,2
2019-02-03T18:05:00.772Z,2
2019-02-03T18:10:01.798Z,2
2019-02-03T18:15:05.855Z,2
2019-02-03T18:20:00.852Z,1.9
2019-02-03T18:25:00.743Z,1.9
2019-02-03T18:30:00.810Z,1.9
2019-02-03T18:35:00.836Z,1.9
2019-02-03T18:40:00.920Z,1.9
2019-02-03T18:45:00.846Z,1.9
2019-02-03T18:50:01.273Z,1.9
2019-02-03T18:55:00.815Z,1.8
2019-02-03T19:05:00.885Z,1.8
2019-02-03T19:10:00.836Z,1.8
2019-02-03T19:15:01.850Z,1.8
2019-02-03T19:20:00.789Z,1.7
2019-02-03T19:25:00.839Z,1.7
2019-02-03T19:30:00.848Z,1.7
2019-02-03T19:35:00.869Z,1.6
2019-02-03T19:40:00.974Z,1.6
2019-02-03T19:45:00.851Z,1.6
2019-02-03T19:50:02.015Z,1.6
2019-02-03T19:55:00.868Z,1.6
2019-02-03T20:00:00.862Z,1.6
2019-02-03T20:05:00.858Z,1.5
2019-02-03T20:10:00.869Z,1.6
2019-02-03T20:15:09.449Z,1.6
2019-02-03T20:20:00.875Z,1.6
2019-02-03T20:25:00.932Z,1.6
2019-02-03T20:30:00.907Z,1.6
2019-02-03T20:35:00.881Z,1.5
2019-02-03T20:40:02.346Z,1.5
2019-02-03T20:45:00.963Z,1.5
2019-02-03T20:50:00.907Z,1.5
2019-02-03T20:55:00.932Z,1.4
2019-02-03T21:00:00.897Z,1.4
2019-02-03T21:05:00.942Z,1.3
2019-02-03T21:10:00.921Z,1.3
2019-02-03T21:15:00.889Z,1.4
2019-02-03T21:20:00.907Z,1.3
2019-02-03T21:25:00.942Z,1.3
2019-02-03T21:30:00.872Z,1.3
2019-02-03T21:35:01.125Z,1.2
2019-02-03T21:40:01.015Z,1.3
2019-02-03T21:45:00.917Z,1.3
2019-02-03T21:50:01.126Z,1.2
2019-02-03T21:55:00.905Z,1.2
2019-02-03T22:00:00.915Z,1.2
2019-02-03T22:05:01.127Z,1.2
2019-02-03T22:10:00.922Z,1.1
2019-02-03T22:15:01.089Z,1.1
2019-02-03T22:20:00.919Z,1.1
2019-02-03T22:25:00.896Z,1.1
2019-02-03T22:30:00.916Z,1.2
2019-02-03T22:35:00.933Z,1.2
2019-02-03T22:40:01.166Z,1.2
2019-02-03T22:45:00.935Z,1.2
2019-02-03T22:50:01.205Z,1.2
2019-02-03T22:55:01.170Z,1.2
2019-02-03T23:00:00.940Z,1.2
2019-02-03T23:05:01.125Z,1.2
2019-02-03T23:10:01.170Z,1.2
2019-02-03T23:15:01.080Z,1.2
2019-02-03T23:20:01.125Z,1.2
2019-02-03T23:25:00.956Z,1.2
2019-02-03T23:30:00.971Z,1.1
2019-02-03T23:35:01.121Z,1.1
2019-02-03T23:40:00.971Z,1.1
2019-02-03T23:45:01.152Z,1.2
2019-02-03T23:50:00.950Z,1.2
2019-02-03T23:55:01.183Z,1.1
